KFOE

Topeka Regional Airport

Topeka, Kansas, USA
METAR KFOE 191053Z 17005KT 10SM CLR 21/21 A2990 RMK AO2 SLP113 T02110206
Observed Flight Rules
Sep-19 @ 10:53 UTC (51 minutes ago) Visual Flight Rules
Wind Visibility Clouds
170° at 5 knots 10 miles
  • Clear skies
Temperatures Readings
Current 21°C / 70°F
Dewpoint 21°C / 70°F
Humidity 100%
Altimeter 29.9" Hg
Pressure 1011.3 hPa
Elevation 320
METAR KFOE 191053Z 17005KT 10SM CLR 21/21 A2990 RMK AO2 SLP113 T02110206
Observed Flight Rules
Sep-19 @ 10:53 UTC
(51 minutes ago)
VFR
Wind Visibility
170° at 5 knots 10 miles
Clouds
  • Clear skies
Temperature Dewpoint
21°C / 70°F 21°C / 70°F
Humidity Altimeter Pressure
100% 29.9" Hg 1011.3 hPa